sensor_id;sensor_type;location;lat;lon;timestamp;temperature;humidity
13433;DHT22;6789;47.678;9.158;2023-02-15T00:00:26;2.40;99.90
13433;DHT22;6789;47.678;9.158;2023-02-15T00:05:32;2.50;99.90
13433;DHT22;6789;47.678;9.158;2023-02-15T00:10:24;2.50;99.90
13433;DHT22;6789;47.678;9.158;2023-02-15T00:15:16;2.50;99.90
13433;DHT22;6789;47.678;9.158;2023-02-15T00:20:08;2.30;99.90
13433;DHT22;6789;47.678;9.158;2023-02-15T00:25:00;2.40;99.90
13433;DHT22;6789;47.678;9.158;2023-02-15T00:29:51;2.40;99.90
13433;DHT22;6789;47.678;9.158;2023-02-15T00:34:43;2.40;99.90
13433;DHT22;6789;47.678;9.158;2023-02-15T00:39:35;2.40;99.90
13433;DHT22;6789;47.678;9.158;2023-02-15T00:44:26;2.50;99.90
13433;DHT22;6789;47.678;9.158;2023-02-15T00:49:18;2.30;99.90
13433;DHT22;6789;47.678;9.158;2023-02-15T00:54:10;2.30;99.90
13433;DHT22;6789;47.678;9.158;2023-02-15T00:59:02;2.30;99.90
13433;DHT22;6789;47.678;9.158;2023-02-15T01:03:53;2.30;99.90
13433;DHT22;6789;47.678;9.158;2023-02-15T01:08:46;2.30;99.90
13433;DHT22;6789;47.678;9.158;2023-02-15T01:13:39;2.30;99.90
13433;DHT22;6789;47.678;9.158;2023-02-15T01:18:32;2.30;99.90
13433;DHT22;6789;47.678;9.158;2023-02-15T01:23:24;2.30;99.90
13433;DHT22;6789;47.678;9.158;2023-02-15T01:28:15;2.30;99.90
13433;DHT22;6789;47.678;9.158;2023-02-15T01:33:07;2.20;99.90
13433;DHT22;6789;47.678;9.158;2023-02-15T01:38:02;2.00;99.90
13433;DHT22;6789;47.678;9.158;2023-02-15T01:42:55;2.10;99.90
13433;DHT22;6789;47.678;9.158;2023-02-15T01:53:24;1.80;99.90
13433;DHT22;6789;47.678;9.158;2023-02-15T01:58:19;2.00;99.90
13433;DHT22;6789;47.678;9.158;2023-02-15T02:03:14;2.00;99.90
13433;DHT22;6789;47.678;9.158;2023-02-15T02:08:07;2.00;99.90
13433;DHT22;6789;47.678;9.158;2023-02-15T02:13:04;2.10;99.90
13433;DHT22;6789;47.678;9.158;2023-02-15T02:18:08;2.00;99.90
13433;DHT22;6789;47.678;9.158;2023-02-15T02:23:40;2.10;99.90
13433;DHT22;6789;47.678;9.158;2023-02-15T02:29:11;2.20;99.90
13433;DHT22;6789;47.678;9.158;2023-02-15T02:34:47;2.30;99.90
13433;DHT22;6789;47.678;9.158;2023-02-15T02:40:21;2.20;99.90
13433;DHT22;6789;47.678;9.158;2023-02-15T02:45:23;2.10;99.90
13433;DHT22;6789;47.678;9.158;2023-02-15T02:50:27;2.10;99.90
13433;DHT22;6789;47.678;9.158;2023-02-15T02:55:40;2.10;99.90
13433;DHT22;6789;47.678;9.158;2023-02-15T03:00:38;2.10;99.90
13433;DHT22;6789;47.678;9.158;2023-02-15T03:05:39;2.00;99.90
13433;DHT22;6789;47.678;9.158;2023-02-15T03:10:37;2.00;99.90
13433;DHT22;6789;47.678;9.158;2023-02-15T03:15:36;2.00;99.90
13433;DHT22;6789;47.678;9.158;2023-02-15T03:20:50;1.90;99.90
13433;DHT22;6789;47.678;9.158;2023-02-15T03:25:48;1.90;99.90
13433;DHT22;6789;47.678;9.158;2023-02-15T03:30:52;1.90;99.90
13433;DHT22;6789;47.678;9.158;2023-02-15T03:35:55;2.00;99.90
13433;DHT22;6789;47.678;9.158;2023-02-15T03:41:01;2.00;99.90
13433;DHT22;6789;47.678;9.158;2023-02-15T03:46:09;2.00;99.90
13433;DHT22;6789;47.678;9.158;2023-02-15T03:51:17;2.00;99.90
13433;DHT22;6789;47.678;9.158;2023-02-15T03:56:26;1.90;99.90
13433;DHT22;6789;47.678;9.158;2023-02-15T04:01:33;2.10;99.90
13433;DHT22;6789;47.678;9.158;2023-02-15T04:06:47;1.90;99.90
13433;DHT22;6789;47.678;9.158;2023-02-15T04:11:39;1.90;99.90
13433;DHT22;6789;47.678;9.158;2023-02-15T04:16:31;1.90;99.90
13433;DHT22;6789;47.678;9.158;2023-02-15T04:21:24;1.80;99.90
13433;DHT22;6789;47.678;9.158;2023-02-15T04:26:35;1.80;99.90
13433;DHT22;6789;47.678;9.158;2023-02-15T04:31:27;1.70;99.90
13433;DHT22;6789;47.678;9.158;2023-02-15T04:36:19;1.70;99.90
13433;DHT22;6789;47.678;9.158;2023-02-15T04:41:11;1.80;99.90
13433;DHT22;6789;47.678;9.158;2023-02-15T04:46:04;1.70;99.90
13433;DHT22;6789;47.678;9.158;2023-02-15T04:50:56;1.70;99.90
13433;DHT22;6789;47.678;9.158;2023-02-15T04:55:48;1.70;99.90
13433;DHT22;6789;47.678;9.158;2023-02-15T05:00:39;1.70;99.90
13433;DHT22;6789;47.678;9.158;2023-02-15T05:05:46;1.80;99.90
13433;DHT22;6789;47.678;9.158;2023-02-15T05:10:51;1.70;99.90
13433;DHT22;6789;47.678;9.158;2023-02-15T05:15:57;1.80;99.90
13433;DHT22;6789;47.678;9.158;2023-02-15T05:21:03;1.70;99.90
13433;DHT22;6789;47.678;9.158;2023-02-15T05:26:17;1.80;99.90
13433;DHT22;6789;47.678;9.158;2023-02-15T05:31:43;1.80;99.90
13433;DHT22;6789;47.678;9.158;2023-02-15T05:36:52;1.80;99.90
13433;DHT22;6789;47.678;9.158;2023-02-15T05:41:44;1.70;99.90
13433;DHT22;6789;47.678;9.158;2023-02-15T05:46:50;1.60;99.90
13433;DHT22;6789;47.678;9.158;2023-02-15T05:51:42;1.70;99.90
13433;DHT22;6789;47.678;9.158;2023-02-15T05:56:48;1.70;99.90
13433;DHT22;6789;47.678;9.158;2023-02-15T06:01:54;1.70;99.90
13433;DHT22;6789;47.678;9.158;2023-02-15T06:07:00;1.80;99.90
13433;DHT22;6789;47.678;9.158;2023-02-15T06:12:06;1.70;99.90
13433;DHT22;6789;47.678;9.158;2023-02-15T06:17:12;1.70;99.90
13433;DHT22;6789;47.678;9.158;2023-02-15T06:22:17;1.70;99.90
13433;DHT22;6789;47.678;9.158;2023-02-15T06:27:13;1.50;99.90
13433;DHT22;6789;47.678;9.158;2023-02-15T06:32:20;1.50;99.90
13433;DHT22;6789;47.678;9.158;2023-02-15T06:37:27;1.50;99.90
13433;DHT22;6789;47.678;9.158;2023-02-15T06:42:34;1.50;99.90
13433;DHT22;6789;47.678;9.158;2023-02-15T06:47:40;1.50;99.90
13433;DHT22;6789;47.678;9.158;2023-02-15T06:52:46;1.40;99.90
13433;DHT22;6789;47.678;9.158;2023-02-15T06:57:40;1.50;99.90
13433;DHT22;6789;47.678;9.158;2023-02-15T07:02:47;1.50;99.90
13433;DHT22;6789;47.678;9.158;2023-02-15T07:07:52;1.60;99.90
13433;DHT22;6789;47.678;9.158;2023-02-15T07:12:58;1.60;99.90
13433;DHT22;6789;47.678;9.158;2023-02-15T07:17:51;1.60;99.90
13433;DHT22;6789;47.678;9.158;2023-02-15T07:22:57;1.70;99.90
13433;DHT22;6789;47.678;9.158;2023-02-15T07:28:03;1.70;99.90
13433;DHT22;6789;47.678;9.158;2023-02-15T07:33:10;1.40;99.90
13433;DHT22;6789;47.678;9.158;2023-02-15T07:38:36;1.50;99.90
13433;DHT22;6789;47.678;9.158;2023-02-15T07:43:44;1.60;99.90
13433;DHT22;6789;47.678;9.158;2023-02-15T07:48:52;1.80;99.90
13433;DHT22;6789;47.678;9.158;2023-02-15T07:53:48;1.60;99.90
13433;DHT22;6789;47.678;9.158;2023-02-15T07:58:47;1.60;99.90
13433;DHT22;6789;47.678;9.158;2023-02-15T08:03:56;1.70;99.90
13433;DHT22;6789;47.678;9.158;2023-02-15T08:09:05;1.90;99.90
13433;DHT22;6789;47.678;9.158;2023-02-15T08:14:21;2.00;99.90
13433;DHT22;6789;47.678;9.158;2023-02-15T08:19:30;2.20;99.90
13433;DHT22;6789;47.678;9.158;2023-02-15T08:24:37;2.10;99.90
13433;DHT22;6789;47.678;9.158;2023-02-15T08:30:00;2.10;99.90
13433;DHT22;6789;47.678;9.158;2023-02-15T08:35:05;2.00;99.90
13433;DHT22;6789;47.678;9.158;2023-02-15T08:40:05;2.20;99.90
13433;DHT22;6789;47.678;9.158;2023-02-15T08:45:12;2.10;99.90
13433;DHT22;6789;47.678;9.158;2023-02-15T08:50:06;2.40;99.90
13433;DHT22;6789;47.678;9.158;2023-02-15T08:55:12;2.50;99.90
13433;DHT22;6789;47.678;9.158;2023-02-15T09:00:18;2.60;99.90
13433;DHT22;6789;47.678;9.158;2023-02-15T09:05:29;2.50;99.90
13433;DHT22;6789;47.678;9.158;2023-02-15T09:10:39;2.40;99.90
13433;DHT22;6789;47.678;9.158;2023-02-15T09:15:45;2.50;99.90
13433;DHT22;6789;47.678;9.158;2023-02-15T09:20:53;2.70;99.90
13433;DHT22;6789;47.678;9.158;2023-02-15T09:25:52;2.60;99.90
13433;DHT22;6789;47.678;9.158;2023-02-15T09:31:04;2.60;99.90
13433;DHT22;6789;47.678;9.158;2023-02-15T09:36:48;2.70;99.90
13433;DHT22;6789;47.678;9.158;2023-02-15T09:48:11;2.90;99.90
13433;DHT22;6789;47.678;9.158;2023-02-15T10:05:31;3.50;99.90
13433;DHT22;6789;47.678;9.158;2023-02-15T10:11:17;3.40;99.90
13433;DHT22;6789;47.678;9.158;2023-02-15T10:28:08;3.20;99.90
13433;DHT22;6789;47.678;9.158;2023-02-15T10:33:37;3.30;99.90
13433;DHT22;6789;47.678;9.158;2023-02-15T10:50:03;3.60;99.90
13433;DHT22;6789;47.678;9.158;2023-02-15T11:06:21;3.90;99.90
13433;DHT22;6789;47.678;9.158;2023-02-15T11:11:35;3.90;99.90
13433;DHT22;6789;47.678;9.158;2023-02-15T11:16:53;4.00;99.90
13433;DHT22;6789;47.678;9.158;2023-02-15T11:22:06;4.40;99.90
13433;DHT22;6789;47.678;9.158;2023-02-15T11:27:27;4.60;99.90
13433;DHT22;6789;47.678;9.158;2023-02-15T11:32:52;4.70;99.90
13433;DHT22;6789;47.678;9.158;2023-02-15T11:38:15;4.80;99.90
13433;DHT22;6789;47.678;9.158;2023-02-15T11:43:31;5.00;99.90
13433;DHT22;6789;47.678;9.158;2023-02-15T11:48:42;5.20;99.90
13433;DHT22;6789;47.678;9.158;2023-02-15T11:53:49;5.30;99.90
13433;DHT22;6789;47.678;9.158;2023-02-15T11:58:59;5.50;99.90
13433;DHT22;6789;47.678;9.158;2023-02-15T12:04:23;4.90;99.90
13433;DHT22;6789;47.678;9.158;2023-02-15T12:14:47;5.10;99.90
13433;DHT22;6789;47.678;9.158;2023-02-15T12:19:57;5.50;99.90
13433;DHT22;6789;47.678;9.158;2023-02-15T12:25:27;5.30;99.90
13433;DHT22;6789;47.678;9.158;2023-02-15T12:30:42;5.80;99.90
13433;DHT22;6789;47.678;9.158;2023-02-15T12:36:04;5.70;99.90
13433;DHT22;6789;47.678;9.158;2023-02-15T12:41:26;6.00;99.90
13433;DHT22;6789;47.678;9.158;2023-02-15T12:46:25;6.20;99.90
13433;DHT22;6789;47.678;9.158;2023-02-15T12:51:31;6.30;99.90
13433;DHT22;6789;47.678;9.158;2023-02-15T12:57:23;6.20;99.90
13433;DHT22;6789;47.678;9.158;2023-02-15T13:02:42;6.30;99.90
13433;DHT22;6789;47.678;9.158;2023-02-15T13:07:58;6.30;99.90
13433;DHT22;6789;47.678;9.158;2023-02-15T13:13:22;6.00;99.90
13433;DHT22;6789;47.678;9.158;2023-02-15T13:18:38;6.00;99.90
13433;DHT22;6789;47.678;9.158;2023-02-15T13:24:01;6.20;99.90
13433;DHT22;6789;47.678;9.158;2023-02-15T13:29:22;6.20;99.90
13433;DHT22;6789;47.678;9.158;2023-02-15T13:40:27;6.10;99.90
13433;DHT22;6789;47.678;9.158;2023-02-15T13:51:21;6.20;99.90
13433;DHT22;6789;47.678;9.158;2023-02-15T14:24:40;6.10;99.90
13433;DHT22;6789;47.678;9.158;2023-02-15T14:30:13;6.30;99.90
13433;DHT22;6789;47.678;9.158;2023-02-15T14:35:27;6.20;99.90
13433;DHT22;6789;47.678;9.158;2023-02-15T14:40:42;5.80;99.90
13433;DHT22;6789;47.678;9.158;2023-02-15T14:46:21;5.70;99.90
13433;DHT22;6789;47.678;9.158;2023-02-15T15:02:12;4.90;99.90
13433;DHT22;6789;47.678;9.158;2023-02-15T15:07:42;4.90;99.90
13433;DHT22;6789;47.678;9.158;2023-02-15T15:12:57;4.70;99.90
13433;DHT22;6789;47.678;9.158;2023-02-15T15:18:06;4.60;99.90
13433;DHT22;6789;47.678;9.158;2023-02-15T15:49:50;4.30;99.90
13433;DHT22;6789;47.678;9.158;2023-02-15T15:55:32;4.10;99.90
13433;DHT22;6789;47.678;9.158;2023-02-15T16:00:59;3.90;99.90
13433;DHT22;6789;47.678;9.158;2023-02-15T16:06:32;3.60;99.90
13433;DHT22;6789;47.678;9.158;2023-02-15T16:11:40;3.50;99.90
13433;DHT22;6789;47.678;9.158;2023-02-15T16:16:54;3.50;99.90
13433;DHT22;6789;47.678;9.158;2023-02-15T16:22:03;3.50;99.90
13433;DHT22;6789;47.678;9.158;2023-02-15T16:27:32;3.40;99.90
13433;DHT22;6789;47.678;9.158;2023-02-15T16:33:08;3.20;99.90
13433;DHT22;6789;47.678;9.158;2023-02-15T16:38:19;3.20;99.90
13433;DHT22;6789;47.678;9.158;2023-02-15T16:43:36;3.00;99.90
13433;DHT22;6789;47.678;9.158;2023-02-15T16:48:51;2.90;99.90
13433;DHT22;6789;47.678;9.158;2023-02-15T16:54:06;2.80;99.90
13433;DHT22;6789;47.678;9.158;2023-02-15T16:59:33;2.70;99.90
13433;DHT22;6789;47.678;9.158;2023-02-15T17:05:07;2.60;99.90
13433;DHT22;6789;47.678;9.158;2023-02-15T17:10:29;2.60;99.90
13433;DHT22;6789;47.678;9.158;2023-02-15T17:20:49;2.30;99.90
13433;DHT22;6789;47.678;9.158;2023-02-15T17:25:58;2.40;99.90
13433;DHT22;6789;47.678;9.158;2023-02-15T17:31:07;2.20;99.90
13433;DHT22;6789;47.678;9.158;2023-02-15T17:36:22;2.20;99.90
13433;DHT22;6789;47.678;9.158;2023-02-15T17:41:35;2.00;99.90
13433;DHT22;6789;47.678;9.158;2023-02-15T17:46:43;2.10;99.90
13433;DHT22;6789;47.678;9.158;2023-02-15T17:51:49;2.10;99.90
13433;DHT22;6789;47.678;9.158;2023-02-15T17:56:55;2.10;99.90
13433;DHT22;6789;47.678;9.158;2023-02-15T18:02:07;2.10;99.90
13433;DHT22;6789;47.678;9.158;2023-02-15T18:07:35;2.00;99.90
13433;DHT22;6789;47.678;9.158;2023-02-15T18:13:00;1.90;99.90
13433;DHT22;6789;47.678;9.158;2023-02-15T18:18:08;1.80;99.90
13433;DHT22;6789;47.678;9.158;2023-02-15T18:23:16;1.80;99.90
13433;DHT22;6789;47.678;9.158;2023-02-15T18:28:22;1.80;99.90
13433;DHT22;6789;47.678;9.158;2023-02-15T18:33:33;1.80;99.90
13433;DHT22;6789;47.678;9.158;2023-02-15T18:38:29;1.70;99.90
13433;DHT22;6789;47.678;9.158;2023-02-15T18:43:35;1.50;99.90
13433;DHT22;6789;47.678;9.158;2023-02-15T18:48:40;1.40;99.90
13433;DHT22;6789;47.678;9.158;2023-02-15T18:53:49;1.30;99.90
13433;DHT22;6789;47.678;9.158;2023-02-15T18:58:58;1.40;99.90
13433;DHT22;6789;47.678;9.158;2023-02-15T19:04:04;1.40;99.90
13433;DHT22;6789;47.678;9.158;2023-02-15T19:09:18;1.40;99.90
13433;DHT22;6789;47.678;9.158;2023-02-15T19:14:29;1.50;99.90
13433;DHT22;6789;47.678;9.158;2023-02-15T19:19:37;1.50;99.90
13433;DHT22;6789;47.678;9.158;2023-02-15T19:24:43;1.40;99.90
13433;DHT22;6789;47.678;9.158;2023-02-15T19:29:52;1.30;99.90
13433;DHT22;6789;47.678;9.158;2023-02-15T19:34:59;1.30;99.90
13433;DHT22;6789;47.678;9.158;2023-02-15T19:40:06;1.20;99.90
13433;DHT22;6789;47.678;9.158;2023-02-15T19:45:18;1.20;99.90
13433;DHT22;6789;47.678;9.158;2023-02-15T19:50:31;1.10;99.90
13433;DHT22;6789;47.678;9.158;2023-02-15T19:55:39;1.10;99.90
13433;DHT22;6789;47.678;9.158;2023-02-15T20:00:46;1.20;99.90
13433;DHT22;6789;47.678;9.158;2023-02-15T20:05:54;1.10;99.90
13433;DHT22;6789;47.678;9.158;2023-02-15T20:11:00;1.00;99.90
13433;DHT22;6789;47.678;9.158;2023-02-15T20:16:05;1.10;99.90
13433;DHT22;6789;47.678;9.158;2023-02-15T20:21:14;1.10;99.90
13433;DHT22;6789;47.678;9.158;2023-02-15T20:26:21;1.10;99.90
13433;DHT22;6789;47.678;9.158;2023-02-15T20:31:35;1.20;99.90
13433;DHT22;6789;47.678;9.158;2023-02-15T20:36:43;1.20;99.90
13433;DHT22;6789;47.678;9.158;2023-02-15T20:41:49;1.10;99.90
13433;DHT22;6789;47.678;9.158;2023-02-15T20:46:57;1.20;99.90
13433;DHT22;6789;47.678;9.158;2023-02-15T20:52:19;1.30;99.90
13433;DHT22;6789;47.678;9.158;2023-02-15T20:57:28;1.50;99.90
13433;DHT22;6789;47.678;9.158;2023-02-15T21:02:35;1.40;99.90
13433;DHT22;6789;47.678;9.158;2023-02-15T21:07:43;1.40;99.90
13433;DHT22;6789;47.678;9.158;2023-02-15T21:12:43;1.40;99.90
13433;DHT22;6789;47.678;9.158;2023-02-15T21:17:51;1.30;99.90
13433;DHT22;6789;47.678;9.158;2023-02-15T21:23:02;1.50;99.90
13433;DHT22;6789;47.678;9.158;2023-02-15T21:28:18;1.70;99.90
13433;DHT22;6789;47.678;9.158;2023-02-15T21:33:27;1.80;99.90
13433;DHT22;6789;47.678;9.158;2023-02-15T21:38:33;1.70;99.90
13433;DHT22;6789;47.678;9.158;2023-02-15T21:43:40;1.60;99.90
13433;DHT22;6789;47.678;9.158;2023-02-15T21:49:04;1.50;99.90
13433;DHT22;6789;47.678;9.158;2023-02-15T21:54:16;1.50;99.90
13433;DHT22;6789;47.678;9.158;2023-02-15T21:59:25;1.40;99.90
13433;DHT22;6789;47.678;9.158;2023-02-15T22:04:32;1.30;99.90
13433;DHT22;6789;47.678;9.158;2023-02-15T22:09:38;1.30;99.90
13433;DHT22;6789;47.678;9.158;2023-02-15T22:14:49;1.30;99.90
13433;DHT22;6789;47.678;9.158;2023-02-15T22:19:57;1.40;99.90
13433;DHT22;6789;47.678;9.158;2023-02-15T22:25:03;1.40;99.90
13433;DHT22;6789;47.678;9.158;2023-02-15T22:29:57;1.40;99.90
13433;DHT22;6789;47.678;9.158;2023-02-15T22:35:05;1.40;99.90
13433;DHT22;6789;47.678;9.158;2023-02-15T22:40:30;1.40;99.90
13433;DHT22;6789;47.678;9.158;2023-02-15T22:45:37;1.50;99.90
13433;DHT22;6789;47.678;9.158;2023-02-15T22:51:14;1.40;99.90
13433;DHT22;6789;47.678;9.158;2023-02-15T22:56:40;1.40;99.90
13433;DHT22;6789;47.678;9.158;2023-02-15T23:01:49;1.40;99.90
13433;DHT22;6789;47.678;9.158;2023-02-15T23:06:42;1.40;99.90
13433;DHT22;6789;47.678;9.158;2023-02-15T23:11:49;1.30;99.90
13433;DHT22;6789;47.678;9.158;2023-02-15T23:16:56;1.30;99.90
13433;DHT22;6789;47.678;9.158;2023-02-15T23:21:48;1.30;99.90
13433;DHT22;6789;47.678;9.158;2023-02-15T23:26:55;1.40;99.90
13433;DHT22;6789;47.678;9.158;2023-02-15T23:32:21;1.30;99.90
13433;DHT22;6789;47.678;9.158;2023-02-15T23:37:27;1.20;99.90
13433;DHT22;6789;47.678;9.158;2023-02-15T23:42:26;1.20;99.90
13433;DHT22;6789;47.678;9.158;2023-02-15T23:47:35;1.20;99.90
13433;DHT22;6789;47.678;9.158;2023-02-15T23:52:59;1.20;99.90
13433;DHT22;6789;47.678;9.158;2023-02-15T23:57:55;1.20;99.90
